Terminal Aerodrome Forecast
Issued by NWS

Home | Current Version | Previous Version | Text Only | Print | Product List | Glossary On
Versions: 1 2 3 4 5 6 7 8 9 10 11 12 13 14
000
FTUS45 KPIH 031720
TAFSUN
TAF
KSUN 031720Z 0318/0418 18010KT P6SM SCT120 BKN150
     FM040400 31007KT P6SM VCSH BKN110
     FM041700 15007KT P6SM VCTS SCT070 BKN100CB=

USA.gov is the U.S. government's official web portal to all federal, state and local government web resources and services.